createdAt,value
2023-04-28T00:00:13.799Z,10.37
2023-04-28T00:02:42.265Z,10.63
2023-04-28T00:05:11.145Z,10.70
2023-04-28T00:07:39.675Z,10.20
2023-04-28T00:10:10.176Z,10.47
2023-04-28T00:12:39.968Z,10.77
2023-04-28T00:15:09.647Z,10.53
2023-04-28T00:17:38.050Z,10.40
2023-04-28T00:20:08.269Z,10.77
2023-04-28T00:22:36.718Z,10.60
2023-04-28T00:25:06.250Z,10.77
2023-04-28T00:27:35.164Z,10.10
2023-04-28T00:30:05.912Z,10.60
2023-04-28T00:32:34.316Z,10.40
2023-04-28T00:35:02.975Z,10.53
2023-04-28T00:37:31.416Z,10.43
2023-04-28T00:39:59.742Z,10.60
2023-04-28T00:42:28.095Z,11.17
2023-04-28T00:44:56.499Z,10.40
2023-04-28T00:47:26.441Z,10.17
2023-04-28T00:49:54.774Z,10.57
2023-04-28T00:52:23.150Z,10.50
2023-04-28T00:54:51.750Z,10.43
2023-04-28T00:57:20.314Z,10.33
2023-04-28T00:59:48.726Z,10.37
2023-04-28T01:02:18.572Z,10.73
2023-04-28T01:04:48.661Z,10.50
2023-04-28T01:07:17.667Z,10.00
2023-04-28T01:09:47.975Z,11.03
2023-04-28T01:12:19.652Z,10.43
2023-04-28T01:14:51.753Z,10.00
2023-04-28T01:17:20.664Z,10.30
2023-04-28T01:19:50.529Z,10.50
2023-04-28T01:22:18.926Z,10.83
2023-04-28T01:24:49.580Z,10.47
2023-04-28T01:27:17.940Z,11.00
2023-04-28T01:29:46.311Z,10.70
2023-04-28T01:32:15.013Z,10.60
2023-04-28T01:34:43.341Z,10.50
2023-04-28T01:37:11.711Z,10.80
2023-04-28T01:39:40.207Z,10.23
2023-04-28T01:42:09.978Z,11.00
2023-04-28T01:44:38.318Z,10.63
2023-04-28T01:47:07.016Z,10.87
2023-04-28T01:49:37.125Z,11.20
2023-04-28T01:52:06.894Z,10.77
2023-04-28T01:54:35.515Z,11.03
2023-04-28T01:57:04.075Z,10.80
2023-04-28T01:59:35.839Z,10.63
2023-04-28T02:02:04.448Z,10.40
2023-04-28T02:04:32.962Z,10.90
2023-04-28T02:07:01.515Z,11.10
2023-04-28T02:09:29.907Z,10.63
2023-04-28T02:12:02.462Z,10.93
2023-04-28T02:14:32.282Z,10.90
2023-04-28T02:17:03.087Z,10.40
2023-04-28T02:19:31.959Z,11.37
2023-04-28T02:22:00.672Z,11.03
2023-04-28T02:24:28.994Z,10.20
2023-04-28T02:26:59.805Z,10.60
2023-04-28T02:29:30.197Z,10.90
2023-04-28T02:32:01.701Z,10.73
2023-04-28T02:34:30.069Z,10.90
2023-04-28T02:36:58.349Z,10.40
2023-04-28T02:39:27.255Z,10.70
2023-04-28T02:41:58.188Z,11.17
2023-04-28T02:44:27.045Z,10.23
2023-04-28T02:46:55.699Z,10.90
2023-04-28T02:49:28.227Z,10.83
2023-04-28T02:51:56.644Z,10.70
2023-04-28T02:54:28.383Z,10.50
2023-04-28T02:56:59.554Z,10.60
2023-04-28T02:59:28.258Z,10.97
2023-04-28T03:01:56.808Z,10.90
2023-04-28T03:04:25.363Z,10.87
2023-04-28T03:06:55.319Z,10.90
2023-04-28T03:09:23.648Z,10.63
2023-04-28T03:11:52.118Z,10.10
2023-04-28T03:14:20.983Z,10.60
2023-04-28T03:16:49.497Z,11.07
2023-04-28T03:19:18.231Z,11.30
2023-04-28T03:21:47.866Z,11.50
2023-04-28T03:24:17.856Z,10.97
2023-04-28T03:26:46.822Z,10.30
2023-04-28T03:29:15.223Z,10.90
2023-04-28T03:31:43.599Z,10.63
2023-04-28T03:34:12.379Z,10.47
2023-04-28T03:36:40.761Z,10.17
2023-04-28T03:39:18.119Z,11.67
2023-04-28T03:41:46.552Z,10.93
2023-04-28T03:44:33.611Z,10.73
2023-04-28T03:47:02.515Z,10.63
2023-04-28T03:49:31.710Z,11.13
2023-04-28T03:52:00.356Z,10.80
2023-04-28T03:54:30.086Z,10.60
2023-04-28T03:57:00.820Z,10.40
2023-04-28T03:59:29.310Z,10.47
2023-04-28T04:01:57.728Z,10.70
2023-04-28T04:04:26.542Z,10.70
2023-04-28T04:06:55.729Z,10.93
2023-04-28T04:09:24.959Z,11.03
2023-04-28T04:11:54.615Z,11.00
2023-04-28T04:14:23.008Z,10.20
2023-04-28T04:16:51.519Z,11.03
2023-04-28T04:19:19.838Z,11.17
2023-04-28T04:21:51.868Z,10.30
2023-04-28T04:24:20.763Z,10.57
2023-04-28T04:26:49.469Z,10.53
2023-04-28T04:29:41.189Z,10.30
2023-04-28T04:32:16.516Z,11.27
2023-04-28T04:34:44.901Z,11.00
2023-04-28T04:37:13.436Z,11.63
2023-04-28T04:39:48.149Z,11.07
2023-04-28T04:45:03.857Z,11.17
2023-04-28T04:47:32.795Z,10.93
2023-04-28T04:50:01.667Z,10.67
2023-04-28T04:52:30.687Z,10.60
2023-04-28T04:54:59.011Z,10.40
2023-04-28T04:57:27.468Z,10.63
2023-04-28T05:00:21.486Z,11.17
2023-04-28T05:02:50.038Z,11.77
2023-04-28T05:05:21.191Z,10.50
2023-04-28T05:08:08.446Z,10.37
2023-04-28T05:10:37.059Z,10.63
2023-04-28T05:13:06.129Z,10.87
2023-04-28T05:15:36.863Z,10.80
2023-04-28T05:18:37.571Z,10.80
2023-04-28T05:21:06.349Z,10.50
2023-04-28T05:23:35.146Z,10.87
2023-04-28T05:26:04.269Z,10.60
2023-04-28T05:28:33.106Z,10.23
2023-04-28T05:31:04.680Z,10.27
2023-04-28T05:33:34.035Z,10.40
2023-04-28T05:36:02.439Z,10.30
2023-04-28T05:38:31.939Z,10.20
2023-04-28T05:41:00.770Z,10.90
2023-04-28T05:43:30.122Z,10.73
2023-04-28T05:45:58.617Z,11.00
2023-04-28T05:48:28.539Z,10.13
2023-04-28T05:50:56.908Z,10.77
2023-04-28T05:53:25.778Z,10.93
2023-04-28T05:55:54.207Z,10.47
2023-04-28T05:58:22.524Z,11.00
2023-04-28T06:00:51.185Z,10.90
2023-04-28T06:03:19.888Z,10.70
2023-04-28T06:05:51.122Z,10.90
2023-04-28T06:08:20.885Z,10.50
2023-04-28T06:10:49.165Z,11.03
2023-04-28T06:13:17.459Z,10.40
2023-04-28T06:15:46.049Z,10.17
2023-04-28T06:18:16.188Z,10.60
2023-04-28T06:20:44.604Z,10.70
2023-04-28T06:23:14.394Z,10.20
2023-04-28T06:25:46.557Z,10.67
2023-04-28T06:28:15.103Z,10.50
2023-04-28T06:30:43.455Z,10.60
2023-04-28T06:33:11.783Z,10.50
2023-04-28T06:35:41.182Z,10.50
2023-04-28T06:38:09.629Z,10.67
2023-04-28T06:40:40.879Z,10.97
2023-04-28T06:43:09.765Z,10.20
2023-04-28T06:45:46.133Z,9.80
2023-04-28T06:48:14.805Z,11.20
2023-04-28T06:50:43.989Z,10.30
2023-04-28T06:53:12.827Z,10.30
2023-04-28T06:55:43.164Z,9.80
2023-04-28T06:58:11.812Z,10.50
2023-04-28T07:00:40.217Z,9.77
2023-04-28T07:03:08.965Z,10.20
2023-04-28T07:05:37.776Z,10.37
2023-04-28T07:08:07.145Z,10.00
2023-04-28T07:10:35.585Z,11.40
2023-04-28T07:13:05.379Z,10.03
2023-04-28T07:15:33.763Z,9.90
2023-04-28T07:18:02.544Z,10.53
2023-04-28T07:20:31.014Z,9.93
2023-04-28T07:22:59.345Z,9.73
2023-04-28T07:25:27.806Z,9.80
2023-04-28T07:27:56.278Z,9.43
2023-04-28T07:30:27.936Z,9.80
2023-04-28T07:32:57.205Z,9.93
2023-04-28T07:35:26.055Z,9.60
2023-04-28T07:37:54.830Z,9.60
2023-04-28T07:40:23.766Z,9.97
2023-04-28T07:42:52.458Z,9.87
2023-04-28T07:45:21.033Z,9.90
2023-04-28T07:47:50.861Z,9.90
2023-04-28T07:50:19.234Z,10.00
2023-04-28T07:52:47.576Z,9.90
2023-04-28T07:55:16.157Z,9.70
2023-04-28T07:57:44.475Z,9.93
2023-04-28T08:00:14.162Z,9.90
2023-04-28T08:02:42.758Z,9.70
2023-04-28T08:05:12.713Z,9.87
2023-04-28T08:07:41.488Z,10.13
2023-04-28T08:10:11.726Z,9.90
2023-04-28T08:12:40.948Z,9.80
2023-04-28T08:15:11.267Z,9.30
2023-04-28T08:17:39.754Z,9.47
2023-04-28T08:20:10.126Z,9.70
2023-04-28T08:22:39.830Z,9.27
2023-04-28T08:25:09.449Z,9.20
2023-04-28T08:27:40.050Z,9.20
2023-04-28T08:30:10.438Z,9.37
2023-04-28T08:32:38.800Z,9.53
2023-04-28T08:35:08.585Z,9.70
2023-04-28T08:37:37.346Z,9.53
2023-04-28T08:40:10.415Z,9.53
2023-04-28T08:42:39.704Z,9.43
2023-04-28T08:45:09.737Z,10.03
2023-04-28T08:47:40.744Z,9.43
2023-04-28T08:50:10.192Z,9.47
2023-04-28T08:52:38.537Z,9.80
2023-04-28T08:55:11.484Z,10.07
2023-04-28T08:57:42.117Z,9.70
2023-04-28T09:00:12.008Z,10.00
2023-04-28T09:02:42.668Z,9.60
2023-04-28T09:05:13.755Z,9.90
2023-04-28T09:07:42.642Z,9.70
2023-04-28T09:10:21.034Z,9.10
2023-04-28T09:12:54.178Z,9.63
2023-04-28T09:15:34.487Z,9.20
2023-04-28T09:18:04.174Z,9.40
2023-04-28T09:20:34.210Z,9.23
2023-04-28T09:23:18.482Z,9.73
2023-04-28T09:26:02.609Z,9.07
2023-04-28T09:28:31.416Z,9.40
2023-04-28T09:31:00.014Z,9.33
2023-04-28T09:33:28.720Z,9.20
2023-04-28T09:35:57.414Z,9.60
2023-04-28T09:38:26.212Z,9.20
2023-04-28T09:41:02.084Z,9.37
2023-04-28T09:43:33.373Z,9.13
2023-04-28T09:46:03.658Z,9.50
2023-04-28T09:48:34.217Z,10.00
2023-04-28T09:51:06.139Z,9.00
2023-04-28T09:53:35.602Z,10.00
2023-04-28T09:56:06.645Z,9.27
2023-04-28T09:58:36.225Z,8.97
2023-04-28T10:01:06.806Z,9.60
2023-04-28T10:03:35.875Z,9.60
2023-04-28T10:06:04.801Z,9.77
2023-04-28T10:08:33.590Z,10.20
2023-04-28T10:11:05.835Z,9.80
2023-04-28T10:13:35.752Z,9.60
2023-04-28T10:16:05.773Z,9.90
2023-04-28T10:18:36.449Z,9.93
2023-04-28T10:21:07.577Z,10.47
2023-04-28T10:24:09.230Z,9.60
2023-04-28T10:27:06.605Z,10.07
2023-04-28T10:29:36.508Z,9.70
2023-04-28T10:32:26.297Z,9.87
2023-04-28T10:34:55.230Z,9.53
2023-04-28T10:38:06.323Z,9.77
2023-04-28T10:40:35.252Z,9.77
2023-04-28T10:43:05.443Z,9.70
2023-04-28T10:46:04.998Z,9.73
2023-04-28T10:49:06.906Z,9.70
2023-04-28T10:51:36.511Z,9.90
2023-04-28T10:54:19.384Z,9.37
2023-04-28T10:57:23.007Z,9.90
2023-04-28T10:59:53.229Z,9.67
2023-04-28T11:02:47.251Z,9.90
2023-04-28T11:05:19.210Z,9.73
2023-04-28T11:08:33.313Z,9.57
2023-04-28T11:11:22.439Z,9.80
2023-04-28T11:13:51.465Z,9.63
2023-04-28T11:16:26.637Z,9.67
2023-04-28T11:18:59.282Z,9.43
2023-04-28T11:21:29.403Z,9.63
2023-04-28T11:23:59.826Z,9.63
2023-04-28T11:26:29.877Z,10.20
2023-04-28T11:28:59.761Z,10.10
2023-04-28T11:31:29.592Z,9.50
2023-04-28T11:34:04.098Z,9.73
2023-04-28T11:36:36.097Z,9.50
2023-04-28T11:39:07.962Z,9.50
2023-04-28T11:41:37.062Z,9.40
2023-04-28T11:44:12.643Z,9.87
2023-04-28T11:46:51.018Z,9.70
2023-04-28T11:49:21.156Z,9.30
2023-04-28T11:51:50.378Z,9.57
2023-04-28T11:54:23.685Z,9.70
2023-04-28T11:56:53.050Z,9.50
2023-04-28T11:59:26.074Z,9.97
2023-04-28T12:01:59.452Z,9.60
2023-04-28T12:04:30.634Z,9.70
2023-04-28T12:07:07.891Z,9.67
2023-04-28T12:09:36.748Z,9.43
2023-04-28T12:12:08.026Z,9.60
2023-04-28T12:14:58.197Z,9.73
2023-04-28T12:17:29.360Z,9.40
2023-04-28T12:20:01.410Z,9.60
2023-04-28T12:22:31.023Z,9.37
2023-04-28T12:25:08.000Z,9.50
2023-04-28T12:27:40.389Z,9.20
2023-04-28T12:30:27.678Z,9.67
2023-04-28T12:32:58.184Z,9.50
2023-04-28T12:35:27.852Z,9.60
2023-04-28T12:37:58.544Z,9.83
2023-04-28T12:40:27.291Z,9.70
2023-04-28T12:42:56.663Z,9.50
2023-04-28T12:45:25.095Z,9.73
2023-04-28T12:47:53.525Z,10.27
2023-04-28T12:50:23.307Z,9.70
2023-04-28T12:52:51.616Z,9.73
2023-04-28T12:55:19.965Z,9.70
2023-04-28T12:57:48.350Z,9.73
2023-04-28T13:00:18.054Z,9.60
2023-04-28T13:02:46.670Z,10.47
2023-04-28T13:05:15.519Z,9.80
2023-04-28T13:07:45.341Z,9.73
2023-04-28T13:10:13.857Z,9.50
2023-04-28T13:12:42.612Z,9.70
2023-04-28T13:15:12.716Z,9.67
2023-04-28T13:17:41.186Z,9.43
2023-04-28T13:20:11.408Z,9.67
2023-04-28T13:22:40.021Z,9.60
2023-04-28T13:25:11.542Z,10.07
2023-04-28T13:27:41.943Z,9.30
2023-04-28T13:30:13.843Z,10.10
2023-04-28T13:32:42.225Z,9.90
2023-04-28T13:35:11.009Z,9.70
2023-04-28T13:37:45.544Z,9.70
2023-04-28T13:40:15.413Z,9.40
2023-04-28T13:42:43.795Z,9.70
2023-04-28T13:45:13.348Z,9.73
2023-04-28T13:47:42.912Z,9.40
2023-04-28T13:50:11.392Z,9.60
2023-04-28T13:52:39.652Z,9.73
2023-04-28T13:55:08.855Z,9.60
2023-04-28T13:57:38.576Z,9.50
2023-04-28T14:00:08.940Z,9.83
2023-04-28T14:02:37.594Z,9.50
2023-04-28T14:05:07.328Z,9.70
2023-04-28T14:07:35.662Z,9.70
2023-04-28T14:10:04.575Z,9.20
2023-04-28T14:12:32.879Z,9.33
2023-04-28T14:15:02.549Z,9.60
2023-04-28T14:17:31.034Z,9.70
2023-04-28T14:19:59.352Z,9.57
2023-04-28T14:22:27.667Z,9.70
2023-04-28T14:24:56.049Z,9.80
2023-04-28T14:27:24.393Z,9.73
2023-04-28T14:29:52.655Z,10.53
2023-04-28T14:32:22.356Z,10.63
2023-04-28T14:34:50.919Z,9.80
2023-04-28T14:37:19.542Z,10.37
2023-04-28T14:39:48.032Z,10.03
2023-04-28T14:42:16.465Z,10.20
2023-04-28T14:44:46.348Z,9.60
2023-04-28T14:47:15.159Z,9.53
2023-04-28T14:49:44.811Z,9.97
2023-04-28T14:52:13.655Z,9.87
2023-04-28T14:54:42.192Z,10.50
2023-04-28T14:57:10.496Z,9.60
2023-04-28T14:59:38.755Z,9.60
2023-04-28T15:02:07.895Z,10.20
2023-04-28T15:04:36.717Z,10.33
2023-04-28T15:07:08.304Z,10.20
2023-04-28T15:09:36.782Z,10.30
2023-04-28T15:12:05.968Z,10.10
2023-04-28T15:14:34.231Z,11.00
2023-04-28T15:17:04.031Z,10.00
2023-04-28T15:19:32.434Z,9.53
2023-04-28T15:22:01.077Z,9.97
2023-04-28T15:24:31.156Z,9.57
2023-04-28T15:26:59.708Z,10.10
2023-04-28T15:29:28.450Z,9.17
2023-04-28T15:31:56.916Z,9.50
2023-04-28T15:34:25.372Z,9.40
2023-04-28T15:36:54.194Z,9.70
2023-04-28T15:39:23.377Z,9.53
2023-04-28T15:41:53.431Z,9.53
2023-04-28T15:44:21.700Z,9.47
2023-04-28T15:46:51.875Z,9.20
2023-04-28T15:49:21.259Z,9.37
2023-04-28T15:51:49.799Z,9.90
2023-04-28T15:54:18.105Z,9.63
2023-04-28T15:56:46.508Z,9.57
2023-04-28T15:59:18.448Z,9.30
2023-04-28T16:01:47.204Z,9.40
2023-04-28T16:04:15.599Z,9.30
2023-04-28T16:06:44.022Z,9.93
2023-04-28T16:09:12.275Z,9.60
2023-04-28T16:11:41.411Z,9.80
2023-04-28T16:14:09.691Z,9.87
2023-04-28T16:16:39.378Z,9.50
2023-04-28T16:19:08.492Z,9.90
2023-04-28T16:21:36.780Z,10.13
2023-04-28T16:24:05.825Z,9.70
2023-04-28T16:26:34.225Z,10.50
2023-04-28T16:29:02.515Z,9.57
2023-04-28T16:31:33.334Z,10.23
2023-04-28T16:34:03.792Z,9.50
2023-04-28T16:36:33.602Z,9.77
2023-04-28T16:39:01.978Z,9.60
2023-04-28T16:41:30.272Z,9.90
2023-04-28T16:43:58.556Z,9.60
2023-04-28T16:46:26.973Z,9.83
2023-04-28T16:48:55.276Z,9.40
2023-04-28T16:51:24.935Z,9.33
2023-04-28T16:53:53.256Z,9.80
2023-04-28T16:56:21.844Z,9.53
2023-04-28T16:58:50.121Z,9.63
2023-04-28T17:01:18.548Z,10.10
2023-04-28T17:03:47.213Z,9.40
2023-04-28T17:06:15.823Z,9.60
2023-04-28T17:08:45.547Z,9.70
2023-04-28T17:11:18.597Z,9.73
2023-04-28T17:13:47.875Z,9.70
2023-04-28T17:16:16.320Z,9.90
2023-04-28T17:18:45.082Z,10.07
2023-04-28T17:21:13.435Z,9.53
2023-04-28T17:23:42.144Z,9.77
2023-04-28T17:26:11.785Z,9.57
2023-04-28T17:28:40.970Z,9.70
2023-04-28T17:31:09.262Z,9.33
2023-04-28T17:33:37.657Z,9.50
2023-04-28T17:36:06.580Z,9.50
2023-04-28T17:38:35.970Z,9.47
2023-04-28T17:41:04.238Z,9.27
2023-04-28T17:43:33.953Z,9.67
2023-04-28T17:46:02.354Z,9.63
2023-04-28T17:48:31.040Z,10.00
2023-04-28T17:50:59.657Z,9.50
2023-04-28T17:53:28.383Z,9.73
2023-04-28T17:55:56.797Z,9.90
2023-04-28T17:58:25.191Z,9.83
2023-04-28T18:01:02.203Z,9.77
2023-04-28T18:03:31.393Z,9.27
2023-04-28T18:05:59.739Z,9.40
2023-04-28T18:08:28.322Z,10.10
2023-04-28T18:10:56.876Z,9.90
2023-04-28T18:13:25.452Z,10.07
2023-04-28T18:15:53.883Z,9.53
2023-04-28T18:18:23.698Z,9.90
2023-04-28T18:20:58.521Z,10.00
2023-04-28T18:23:27.275Z,9.30
2023-04-28T18:25:55.637Z,10.00
2023-04-28T18:28:24.002Z,9.43
2023-04-28T18:30:51.316Z,9.80
2023-04-28T18:33:22.871Z,9.50
2023-04-28T18:36:00.891Z,9.30
2023-04-28T18:38:30.995Z,9.70
2023-04-28T18:40:59.666Z,9.70
2023-04-28T18:43:28.044Z,9.90
2023-04-28T18:45:56.597Z,9.37
2023-04-28T18:48:25.701Z,9.70
2023-04-28T18:50:54.260Z,9.60
2023-04-28T18:53:23.958Z,9.70
2023-04-28T18:55:55.619Z,9.20
2023-04-28T18:58:24.013Z,9.20
2023-04-28T19:00:52.949Z,9.50
2023-04-28T19:03:21.718Z,12.23
2023-04-28T19:05:50.317Z,10.33
2023-04-28T19:08:18.607Z,10.20
2023-04-28T19:10:49.043Z,10.20
2023-04-28T19:13:17.444Z,10.03
2023-04-28T19:15:45.763Z,10.13
2023-04-28T19:18:14.078Z,9.67
2023-04-28T19:20:42.732Z,9.43
2023-04-28T19:23:11.128Z,9.07
2023-04-28T19:25:39.481Z,9.60
2023-04-28T19:28:10.898Z,9.40
2023-04-28T19:30:39.252Z,9.30
2023-04-28T19:33:07.742Z,9.60
2023-04-28T19:35:36.097Z,9.30
2023-04-28T19:38:04.412Z,9.47
2023-04-28T19:40:32.834Z,9.63
2023-04-28T19:43:01.170Z,9.33
2023-04-28T19:45:30.815Z,9.60
2023-04-28T19:47:59.223Z,9.70
2023-04-28T19:50:27.507Z,9.57
2023-04-28T19:52:55.806Z,9.30
2023-04-28T19:55:24.806Z,9.27
2023-04-28T19:57:55.273Z,9.33
2023-04-28T20:00:24.332Z,9.40
2023-04-28T20:02:54.120Z,9.27
2023-04-28T20:05:23.018Z,9.20
2023-04-28T20:07:52.747Z,9.27
2023-04-28T20:10:21.922Z,9.47
2023-04-28T20:12:50.628Z,9.23
2023-04-28T20:15:19.490Z,9.40
2023-04-28T20:17:47.901Z,9.37
2023-04-28T20:20:17.669Z,9.00
2023-04-28T20:22:48.759Z,9.27
2023-04-28T20:25:17.649Z,9.20
2023-04-28T20:27:47.006Z,9.37
2023-04-28T20:30:15.334Z,9.20
2023-04-28T20:32:44.333Z,9.10
2023-04-28T20:35:13.102Z,9.50
2023-04-28T20:37:42.879Z,8.80
2023-04-28T20:40:12.102Z,8.87
2023-04-28T20:42:40.702Z,8.80
2023-04-28T20:45:09.736Z,9.23
2023-04-28T20:47:38.056Z,9.10
2023-04-28T20:50:10.899Z,9.33
2023-04-28T20:52:39.341Z,9.10
2023-04-28T20:55:10.547Z,9.20
2023-04-28T20:57:38.821Z,9.17
2023-04-28T21:00:08.976Z,8.83
2023-04-28T21:02:37.900Z,9.10
2023-04-28T21:05:07.132Z,9.23
2023-04-28T21:07:35.482Z,9.20
2023-04-28T21:10:03.863Z,9.33
2023-04-28T21:12:33.548Z,9.30
2023-04-28T21:15:01.831Z,9.00
2023-04-28T21:17:30.207Z,9.23
2023-04-28T21:19:58.499Z,8.80
2023-04-28T21:22:27.830Z,9.07
2023-04-28T21:24:56.342Z,8.67
2023-04-28T21:27:24.895Z,9.33
2023-04-28T21:29:54.525Z,9.07
2023-04-28T21:32:22.906Z,8.90
2023-04-28T21:34:51.435Z,8.90
2023-04-28T21:37:19.777Z,9.07
2023-04-28T21:39:48.114Z,9.00
2023-04-28T21:42:16.470Z,8.97
2023-04-28T21:44:44.968Z,9.13
2023-04-28T21:47:15.820Z,8.87
2023-04-28T21:49:44.391Z,9.17
2023-04-28T21:52:14.417Z,8.80
2023-04-28T21:54:43.015Z,9.10
2023-04-28T21:57:11.579Z,9.27
2023-04-28T21:59:40.237Z,9.10
2023-04-28T22:02:08.756Z,9.10
2023-04-28T22:04:38.670Z,8.90
2023-04-28T22:07:07.987Z,9.20
2023-04-28T22:09:36.391Z,9.10
2023-04-28T22:12:05.162Z,8.90
2023-04-28T22:17:04.738Z,9.27
2023-04-28T22:19:34.026Z,8.90
2023-04-28T22:22:03.899Z,9.27
2023-04-28T22:24:32.582Z,9.33
2023-04-28T22:27:01.052Z,9.17
2023-04-28T22:29:30.192Z,9.37
2023-04-28T22:31:59.044Z,9.10
2023-04-28T22:34:27.608Z,9.13
2023-04-28T22:36:56.165Z,9.00
2023-04-28T22:39:27.067Z,8.90
2023-04-28T22:41:55.844Z,9.13
2023-04-28T22:44:24.168Z,8.90
2023-04-28T22:46:53.265Z,9.37
2023-04-28T22:49:24.833Z,9.30
2023-04-28T22:51:53.263Z,9.30
2023-04-28T22:54:22.045Z,9.20
2023-04-28T22:56:53.404Z,9.10
2023-04-28T22:59:22.182Z,9.60
2023-04-28T23:01:50.713Z,9.23
2023-04-28T23:04:20.526Z,9.23
2023-04-28T23:06:49.128Z,9.40
2023-04-28T23:09:17.483Z,9.47
2023-04-28T23:11:45.801Z,9.73
2023-04-28T23:14:15.575Z,9.10
2023-04-28T23:16:43.991Z,9.30
2023-04-28T23:19:12.426Z,9.03
2023-04-28T23:21:40.785Z,9.47
2023-04-28T23:24:11.037Z,9.23
2023-04-28T23:26:39.310Z,9.30
2023-04-28T23:29:08.946Z,9.40
2023-04-28T23:31:39.856Z,9.43
2023-04-28T23:34:08.437Z,9.50
2023-04-28T23:36:37.528Z,9.67
2023-04-28T23:39:05.900Z,9.50
2023-04-28T23:41:34.273Z,9.33
2023-04-28T23:44:02.532Z,9.40
2023-04-28T23:46:30.929Z,9.30
2023-04-28T23:49:00.639Z,9.53
2023-04-28T23:51:28.970Z,9.47
2023-04-28T23:53:57.276Z,9.20
2023-04-28T23:56:26.202Z,9.30
2023-04-28T23:58:54.562Z,9.70
